Time;durP1;ratioP1;P1;durP2;ratioP2;P2;SDS_P1;SDS_P2;PMS_P1;PMS_P2;Temp;Humidity;BMP_temperature;BMP_pressure;BME280_temperature;BME280_humidity;BME280_pressure;Samples;Min_cycle;Max_cycle;Signal;HPM_P1;HPM_P2
2023/09/12 00:01:06;;;;;;;3.83;3.53;;;20.10;99.90;;;;;;5033343;28;20450;-80
2023/09/12 00:03:33;;;;;;;4.93;3.97;;;20.10;99.90;;;;;;5033825;28;20433;-80
2023/09/12 00:06:02;;;;;;;5.30;2.47;;;20.10;99.90;;;;;;5033115;28;20463;-80
2023/09/12 00:08:29;;;;;;;5.03;3.20;;;20.10;99.90;;;;;;5032913;28;20458;-80
2023/09/12 00:11:03;;;;;;;4.00;2.80;;;20.00;99.90;;;;;;5032986;28;20453;-80
2023/09/12 00:13:31;;;;;;;6.70;3.90;;;20.00;99.90;;;;;;5033197;28;20820;-80
2023/09/12 00:15:59;;;;;;;3.63;3.30;;;19.90;99.90;;;;;;5033132;28;20462;-80
2023/09/12 00:18:26;;;;;;;8.63;3.30;;;20.00;99.90;;;;;;5033111;28;20490;-80
2023/09/12 00:20:54;;;;;;;4.57;3.13;;;20.00;99.90;;;;;;5032864;28;20453;-81
2023/09/12 00:23:22;;;;;;;3.63;3.33;;;19.90;99.90;;;;;;5033924;28;20450;-80
2023/09/12 00:25:51;;;;;;;6.07;3.63;;;19.90;99.90;;;;;;5033084;28;20482;-80
2023/09/12 00:28:18;;;;;;;4.80;2.90;;;19.90;99.90;;;;;;5033114;28;20833;-80
2023/09/12 00:30:45;;;;;;;7.67;4.30;;;19.90;99.90;;;;;;5033022;28;20565;-80
2023/09/12 00:33:13;;;;;;;7.73;3.60;;;19.90;99.90;;;;;;5032980;28;20445;-80
2023/09/12 00:35:39;;;;;;;4.77;3.23;;;19.90;99.90;;;;;;5032920;28;20473;-80
2023/09/12 00:38:07;;;;;;;4.83;3.27;;;19.90;99.90;;;;;;5032965;28;20443;-80
2023/09/12 00:40:34;;;;;;;3.67;3.30;;;19.90;99.90;;;;;;5032594;28;20442;-80
2023/09/12 00:43:00;;;;;;;5.77;2.90;;;19.90;99.90;;;;;;5032910;28;20446;-80
2023/09/12 00:45:27;;;;;;;6.27;3.20;;;19.90;99.90;;;;;;5032873;28;20462;-80
2023/09/12 00:47:54;;;;;;;3.30;2.70;;;19.80;99.90;;;;;;5032651;28;20959;-80
2023/09/12 00:50:25;;;;;;;9.60;3.50;;;19.80;99.90;;;;;;5032507;28;20478;-80
2023/09/12 00:52:54;;;;;;;8.03;4.10;;;19.80;99.90;;;;;;5032914;28;20407;-80
2023/09/12 00:55:21;;;;;;;10.93;3.47;;;19.80;99.90;;;;;;5032468;28;20459;-80
2023/09/12 00:57:48;;;;;;;6.10;3.83;;;19.70;99.90;;;;;;5032470;28;20962;-80
2023/09/12 01:00:16;;;;;;;8.17;4.20;;;19.70;99.90;;;;;;5033470;28;20446;-80
2023/09/12 01:02:44;;;;;;;5.70;3.87;;;19.60;99.90;;;;;;5032491;28;20441;-81
2023/09/12 01:05:12;;;;;;;5.03;3.90;;;19.60;99.90;;;;;;5032675;28;20466;-80
2023/09/12 01:07:42;;;;;;;6.80;3.70;;;19.60;99.90;;;;;;5032434;28;20798;-80
2023/09/12 01:10:09;;;;;;;7.87;4.37;;;19.60;99.90;;;;;;5035261;28;20485;-80
2023/09/12 01:12:37;;;;;;;3.13;2.83;;;19.60;99.90;;;;;;5036063;28;20446;-80
2023/09/12 01:15:05;;;;;;;7.73;3.10;;;19.60;99.90;;;;;;5036241;28;20462;-81
2023/09/12 01:17:32;;;;;;;4.50;3.20;;;19.50;99.90;;;;;;5035927;28;20481;-81
2023/09/12 01:20:02;;;;;;;7.43;3.70;;;19.40;99.90;;;;;;5035981;28;20442;-81
2023/09/12 01:22:57;;;;;;;5.10;3.80;;;19.50;99.90;;;;;;5036128;28;20817;-81
2023/09/12 01:26:01;;;;;;;7.20;3.30;;;19.50;99.90;;;;;;5035833;28;20477;-81
2023/09/12 01:28:31;;;;;;;7.57;3.60;;;19.50;99.90;;;;;;5035773;28;20449;-80
2023/09/12 01:30:59;;;;;;;4.70;2.93;;;19.40;99.90;;;;;;5035636;28;20974;-80
2023/09/12 01:33:26;;;;;;;6.33;3.57;;;19.50;99.90;;;;;;5035897;28;20447;-80
2023/09/12 01:35:52;;;;;;;5.03;3.50;;;19.30;99.90;;;;;;5035604;28;20459;-80
2023/09/12 01:38:19;;;;;;;6.20;3.87;;;19.40;99.90;;;;;;5035656;28;20794;-81
2023/09/12 01:40:49;;;;;;;5.90;3.90;;;19.40;99.90;;;;;;5035560;28;20806;-81
2023/09/12 01:43:18;;;;;;;6.00;4.30;;;19.30;99.90;;;;;;5036251;28;20809;-80
2023/09/12 01:45:48;;;;;;;5.90;4.20;;;19.30;99.90;;;;;;5035607;28;20469;-80
2023/09/12 01:48:20;;;;;;;3.73;2.77;;;19.30;99.90;;;;;;5035834;28;20444;-80
2023/09/12 01:50:48;;;;;;;4.80;4.07;;;19.30;99.90;;;;;;5035790;28;20475;-80
2023/09/12 01:53:15;;;;;;;5.53;3.30;;;19.20;99.90;;;;;;5035705;28;20451;-80
2023/09/12 01:55:44;;;;;;;5.27;4.17;;;19.20;99.90;;;;;;5035115;28;20984;-80
2023/09/12 01:58:11;;;;;;;9.60;4.40;;;19.20;99.90;;;;;;5035439;28;20520;-80
2023/09/12 02:00:39;;;;;;;3.87;2.97;;;19.20;99.90;;;;;;5035348;28;20450;-80
2023/09/12 02:03:07;;;;;;;10.67;3.87;;;19.20;99.90;;;;;;5035054;28;20438;-80
2023/09/12 02:05:34;;;;;;;7.50;3.93;;;19.10;99.90;;;;;;5035089;28;20474;-81
2023/09/12 02:08:01;;;;;;;7.00;3.70;;;19.10;99.90;;;;;;5035280;28;20446;-80
2023/09/12 02:10:28;;;;;;;4.30;3.30;;;19.10;99.90;;;;;;5035392;28;20494;-80
2023/09/12 02:12:55;;;;;;;7.23;3.50;;;19.10;99.90;;;;;;5035075;28;20447;-80
2023/09/12 02:15:22;;;;;;;5.30;3.40;;;19.10;99.90;;;;;;5035050;28;20477;-80
2023/09/12 02:17:50;;;;;;;10.20;4.00;;;19.00;99.90;;;;;;5035340;28;20971;-80
2023/09/12 02:20:18;;;;;;;5.97;3.60;;;19.00;99.90;;;;;;5033990;28;20944;-80
2023/09/12 02:22:45;;;;;;;6.43;4.47;;;19.00;99.90;;;;;;5034875;28;20450;-80
2023/09/12 02:25:12;;;;;;;5.83;4.57;;;19.10;99.90;;;;;;5034719;28;20512;-80
2023/09/12 02:27:39;;;;;;;8.27;4.03;;;19.00;99.90;;;;;;5034667;28;20442;-80
2023/09/12 02:30:07;;;;;;;5.60;3.97;;;19.10;99.90;;;;;;5035020;28;20487;-80
2023/09/12 02:32:33;;;;;;;5.87;3.40;;;19.10;99.90;;;;;;5034802;28;20453;-80
2023/09/12 02:35:00;;;;;;;5.13;3.87;;;19.10;99.90;;;;;;5034729;28;20481;-80
2023/09/12 02:37:28;;;;;;;7.77;4.27;;;19.20;99.90;;;;;;5034399;28;20447;-80
2023/09/12 02:39:55;;;;;;;5.20;4.17;;;19.20;99.90;;;;;;5034245;28;20831;-80
2023/09/12 02:42:22;;;;;;;7.87;3.50;;;19.20;99.90;;;;;;5034746;28;20462;-80
2023/09/12 02:44:49;;;;;;;6.10;3.80;;;19.30;99.90;;;;;;5034471;28;20458;-81
2023/09/12 02:47:16;;;;;;;4.70;3.20;;;19.30;99.90;;;;;;5034581;28;20541;-81
2023/09/12 02:49:42;;;;;;;4.30;3.87;;;19.30;99.90;;;;;;5034424;28;20482;-81
2023/09/12 02:52:09;;;;;;;9.20;3.80;;;19.30;99.90;;;;;;5034185;28;20959;-80
2023/09/12 02:54:37;;;;;;;8.43;3.80;;;19.30;99.90;;;;;;5034035;28;20928;-81
2023/09/12 02:57:04;;;;;;;4.83;3.70;;;19.40;99.90;;;;;;5034344;28;20450;-81
2023/09/12 02:59:31;;;;;;;5.10;4.17;;;19.40;99.90;;;;;;5034020;28;20951;-81
2023/09/12 03:01:58;;;;;;;7.50;4.03;;;19.40;99.90;;;;;;5034317;28;20452;-81
2023/09/12 03:04:27;;;;;;;4.00;3.40;;;19.40;99.90;;;;;;5034241;28;20463;-81
2023/09/12 03:06:53;;;;;;;5.20;3.93;;;19.40;99.90;;;;;;5034175;28;20438;-80
2023/09/12 03:09:22;;;;;;;4.57;4.03;;;19.50;99.90;;;;;;5033746;28;20829;-80
2023/09/12 03:11:50;;;;;;;5.73;3.90;;;19.40;99.90;;;;;;5034086;28;20451;-80
2023/09/12 03:14:17;;;;;;;11.47;4.23;;;19.40;99.90;;;;;;5033913;28;20458;-80
2023/09/12 03:16:44;;;;;;;12.87;4.77;;;19.40;99.90;;;;;;5033917;28;20473;-80
2023/09/12 03:19:10;;;;;;;10.73;4.27;;;19.40;99.90;;;;;;5033936;28;20441;-80
2023/09/12 03:21:38;;;;;;;5.73;3.73;;;19.40;99.90;;;;;;5033807;28;20487;-81
2023/09/12 03:24:06;;;;;;;8.73;4.50;;;19.30;99.90;;;;;;5033537;28;20956;-80
2023/09/12 03:26:35;;;;;;;4.63;4.23;;;19.30;99.90;;;;;;5033317;28;20474;-80
2023/09/12 03:29:03;;;;;;;6.60;3.47;;;19.20;99.90;;;;;;5033778;28;20442;-80
2023/09/12 03:31:30;;;;;;;4.13;3.47;;;19.20;99.90;;;;;;5033719;28;20975;-80
2023/09/12 03:33:57;;;;;;;3.60;3.30;;;19.20;99.90;;;;;;5033633;28;20784;-80
2023/09/12 03:36:24;;;;;;;4.43;3.80;;;19.20;99.90;;;;;;5033618;28;20489;-80
2023/09/12 03:38:50;;;;;;;7.00;4.17;;;19.10;99.90;;;;;;5033345;28;21054;-80
2023/09/12 03:41:17;;;;;;;5.10;4.23;;;19.10;99.90;;;;;;5033531;28;20443;-80
2023/09/12 03:43:44;;;;;;;6.10;4.23;;;19.20;99.90;;;;;;5033632;28;20457;-81
2023/09/12 03:46:12;;;;;;;6.23;4.07;;;19.10;99.90;;;;;;5033575;28;20473;-80
2023/09/12 03:48:39;;;;;;;4.60;3.60;;;19.10;99.90;;;;;;5033171;28;20447;-81
2023/09/12 03:51:06;;;;;;;10.70;4.57;;;19.10;99.90;;;;;;5033091;28;20474;-81
2023/09/12 03:53:32;;;;;;;4.13;3.43;;;19.10;99.90;;;;;;5033147;28;20439;-80
2023/09/12 03:56:00;;;;;;;4.87;4.40;;;19.00;99.90;;;;;;5033374;28;20455;-81
2023/09/12 03:58:27;;;;;;;6.10;4.27;;;19.00;99.90;;;;;;5033304;28;20451;-81
2023/09/12 04:00:53;;;;;;;6.17;4.20;;;19.00;99.90;;;;;;5033355;28;20449;-80
2023/09/12 04:03:22;;;;;;;6.70;4.67;;;19.00;99.90;;;;;;5033295;28;20450;-80
2023/09/12 04:05:49;;;;;;;6.20;4.70;;;18.90;99.90;;;;;;5033256;28;20541;-80
2023/09/12 04:08:15;;;;;;;6.13;4.00;;;18.90;99.90;;;;;;5033272;28;20451;-80
2023/09/12 04:10:42;;;;;;;4.63;3.43;;;18.80;99.90;;;;;;5032829;28;20490;-80
2023/09/12 04:13:09;;;;;;;7.07;4.13;;;18.80;99.90;;;;;;5033194;28;20447;-80
2023/09/12 04:15:36;;;;;;;6.80;4.10;;;18.80;99.90;;;;;;5032793;28;20825;-80
2023/09/12 04:18:02;;;;;;;7.50;5.00;;;18.70;99.90;;;;;;5033180;28;20793;-80
2023/09/12 04:20:30;;;;;;;12.70;4.60;;;18.70;99.90;;;;;;5033135;28;20434;-80
2023/09/12 04:22:57;;;;;;;3.27;2.60;;;18.70;99.90;;;;;;5033117;28;20443;-80
2023/09/12 04:25:24;;;;;;;6.27;3.70;;;18.70;99.90;;;;;;5032827;28;20471;-80
2023/09/12 04:27:51;;;;;;;4.27;3.57;;;18.60;99.90;;;;;;5032829;28;20430;-80
2023/09/12 04:30:18;;;;;;;5.00;3.47;;;18.60;99.90;;;;;;5032665;28;20496;-80
2023/09/12 04:32:44;;;;;;;4.90;4.20;;;18.60;99.90;;;;;;5033243;28;20446;-80
2023/09/12 04:35:11;;;;;;;7.80;4.20;;;18.60;99.90;;;;;;5032936;28;20462;-80
2023/09/12 04:37:39;;;;;;;7.87;3.90;;;18.60;99.90;;;;;;5032949;28;20500;-80
2023/09/12 04:40:09;;;;;;;5.53;4.07;;;18.60;99.90;;;;;;5032957;28;20449;-80
2023/09/12 04:42:36;;;;;;;4.83;3.47;;;18.60;99.90;;;;;;5032965;28;20447;-80
2023/09/12 04:45:03;;;;;;;7.50;3.87;;;18.50;99.90;;;;;;5035496;28;20469;-80
2023/09/12 04:47:29;;;;;;;8.07;4.37;;;18.50;99.90;;;;;;5036787;28;20453;-80
2023/09/12 04:49:56;;;;;;;7.40;4.20;;;18.50;99.90;;;;;;5036700;28;20443;-80
2023/09/12 04:52:23;;;;;;;7.40;4.20;;;18.50;99.90;;;;;;5036722;28;20449;-80
2023/09/12 04:54:51;;;;;;;5.83;4.37;;;18.40;99.90;;;;;;5036605;28;20466;-80
2023/09/12 04:57:18;;;;;;;5.07;3.50;;;18.50;99.90;;;;;;5036612;28;20446;-80
2023/09/12 04:59:44;;;;;;;9.70;4.20;;;18.50;99.90;;;;;;5036598;28;20454;-80
2023/09/12 05:02:11;;;;;;;4.97;4.10;;;18.60;99.90;;;;;;5036557;28;20470;-80
2023/09/12 05:04:38;;;;;;;6.30;3.50;;;18.50;99.90;;;;;;5036445;28;20446;-80
2023/09/12 05:07:05;;;;;;;6.23;4.20;;;18.60;99.90;;;;;;5036207;28;20439;-81
2023/09/12 05:09:31;;;;;;;5.80;3.83;;;18.60;99.90;;;;;;5036632;28;20517;-80
2023/09/12 05:11:59;;;;;;;5.10;3.87;;;18.60;99.90;;;;;;5036157;28;20489;-80
2023/09/12 05:14:26;;;;;;;6.80;4.00;;;18.70;99.90;;;;;;5036223;28;20454;-80
2023/09/12 05:16:53;;;;;;;5.30;3.90;;;18.70;99.90;;;;;;5035946;28;20943;-80
2023/09/12 05:19:20;;;;;;;4.57;4.07;;;18.70;99.90;;;;;;5036151;28;20454;-80
2023/09/12 05:21:46;;;;;;;7.57;3.93;;;18.70;99.90;;;;;;5036096;28;20447;-80
2023/09/12 05:24:13;;;;;;;7.10;4.10;;;18.80;99.90;;;;;;5036112;28;20443;-80
2023/09/12 05:26:40;;;;;;;5.03;4.30;;;18.90;99.90;;;;;;5035723;28;20485;-81
2023/09/12 05:29:08;;;;;;;7.10;4.03;;;19.00;99.90;;;;;;5036233;28;20435;-81
2023/09/12 05:31:34;;;;;;;7.00;4.10;;;19.00;99.90;;;;;;5035651;28;20474;-80
2023/09/12 05:34:00;;;;;;;7.07;4.07;;;19.20;99.90;;;;;;5035955;28;20447;-81
2023/09/12 05:36:27;;;;;;;7.10;4.67;;;19.20;99.90;;;;;;5035517;28;20463;-81
2023/09/12 05:38:54;;;;;;;4.90;3.83;;;19.30;99.90;;;;;;5035537;28;20736;-80
2023/09/12 05:41:20;;;;;;;5.40;4.00;;;19.40;99.90;;;;;;5036107;28;20442;-80
2023/09/12 05:43:47;;;;;;;13.57;4.43;;;19.50;99.90;;;;;;5036057;28;20447;-80
2023/09/12 05:46:15;;;;;;;7.97;4.37;;;19.50;99.90;;;;;;5035711;28;20466;-80
2023/09/12 05:48:42;;;;;;;4.50;3.80;;;19.70;99.90;;;;;;5035407;28;20927;-80
2023/09/12 05:51:09;;;;;;;10.03;5.00;;;19.70;99.90;;;;;;5035578;28;20483;-80
2023/09/12 05:53:35;;;;;;;5.33;3.97;;;19.70;99.90;;;;;;5035550;28;20442;-80
2023/09/12 05:56:02;;;;;;;6.00;4.30;;;19.80;99.90;;;;;;5034191;28;20467;-81
2023/09/12 05:58:29;;;;;;;7.53;5.30;;;19.70;99.90;;;;;;5035311;28;21013;-81
2023/09/12 06:00:56;;;;;;;5.10;4.27;;;19.80;99.90;;;;;;5035433;28;20438;-81
2023/09/12 06:03:24;;;;;;;6.47;3.67;;;19.90;99.90;;;;;;5035394;28;20568;-81
2023/09/12 06:05:51;;;;;;;4.77;3.70;;;20.00;99.90;;;;;;5035323;28;20477;-81
2023/09/12 06:08:17;;;;;;;6.27;4.00;;;19.90;99.90;;;;;;5035037;28;20974;-80
2023/09/12 06:10:44;;;;;;;6.27;4.00;;;19.90;99.90;;;;;;5034906;28;20479;-80
2023/09/12 06:13:11;;;;;;;9.70;5.30;;;19.90;99.90;;;;;;5035213;28;20443;-80
2023/09/12 06:15:38;;;;;;;4.63;3.70;;;20.00;99.90;;;;;;5035094;28;20454;-80
2023/09/12 06:18:05;;;;;;;6.43;5.17;;;20.00;99.90;;;;;;5035361;28;20446;-81
2023/09/12 06:20:33;;;;;;;7.90;4.13;;;20.00;99.90;;;;;;5035015;28;20955;-81
2023/09/12 06:23:00;;;;;;;6.30;4.60;;;20.10;99.90;;;;;;5034734;28;20952;-81
2023/09/12 06:25:28;;;;;;;4.37;3.50;;;20.10;99.90;;;;;;5034414;28;20465;-80
2023/09/12 06:27:55;;;;;;;4.97;4.10;;;20.20;99.90;;;;;;5034945;28;20482;-80
2023/09/12 06:30:22;;;;;;;5.73;4.60;;;20.20;99.90;;;;;;5034833;28;20447;-80
2023/09/12 06:32:48;;;;;;;8.47;5.57;;;20.20;99.90;;;;;;5035050;28;20456;-80
2023/09/12 06:35:15;;;;;;;5.00;3.83;;;20.30;99.90;;;;;;5034424;28;21010;-80
2023/09/12 06:37:44;;;;;;;5.00;4.10;;;20.30;99.90;;;;;;5034910;28;20454;-80
2023/09/12 06:40:11;;;;;;;4.77;4.03;;;20.30;99.90;;;;;;5034690;28;20446;-80
2023/09/12 06:42:38;;;;;;;7.40;4.50;;;20.30;99.90;;;;;;5034450;28;20415;-80
2023/09/12 06:45:06;;;;;;;6.77;4.00;;;20.40;99.90;;;;;;5034538;28;20470;-80
2023/09/12 06:47:32;;;;;;;6.43;3.50;;;20.50;99.90;;;;;;5034253;28;20454;-80
2023/09/12 06:49:59;;;;;;;7.30;4.13;;;20.50;99.90;;;;;;5034391;28;20453;-80
2023/09/12 06:52:26;;;;;;;4.77;4.27;;;20.60;99.90;;;;;;5034362;28;20477;-80
2023/09/12 06:54:54;;;;;;;7.00;4.30;;;20.70;99.90;;;;;;5034624;28;20473;-81
2023/09/12 06:57:21;;;;;;;5.77;4.07;;;20.70;99.90;;;;;;5034171;28;20445;-81
2023/09/12 06:59:49;;;;;;;6.70;4.50;;;20.70;99.90;;;;;;5034335;28;20453;-81
2023/09/12 07:02:18;;;;;;;6.70;4.50;;;20.70;99.90;;;;;;5034023;28;20451;-81
2023/09/12 07:04:44;;;;;;;5.83;4.37;;;20.70;99.90;;;;;;5034212;28;20486;-81
2023/09/12 07:07:11;;;;;;;7.13;4.37;;;20.80;99.90;;;;;;5033615;28;20438;-80
2023/09/12 07:09:38;;;;;;;8.83;4.40;;;20.90;99.90;;;;;;5033841;28;21023;-80
2023/09/12 07:12:07;;;;;;;8.60;4.30;;;21.10;99.90;;;;;;5034017;28;20489;-80
2023/09/12 07:14:33;;;;;;;5.93;4.13;;;21.20;99.90;;;;;;5034657;28;20450;-81
2023/09/12 07:17:00;;;;;;;8.63;4.87;;;21.40;99.90;;;;;;5033804;28;20950;-82
2023/09/12 07:19:27;;;;;;;6.60;4.00;;;21.60;99.90;;;;;;5033984;28;20434;-81
2023/09/12 07:21:54;;;;;;;6.10;4.57;;;21.70;99.90;;;;;;5033740;28;20441;-81
2023/09/12 07:24:20;;;;;;;3.70;3.37;;;21.90;99.90;;;;;;5033893;28;20453;-81
2023/09/12 07:26:47;;;;;;;7.10;4.57;;;22.00;99.90;;;;;;5033638;28;20492;-80
2023/09/12 07:29:15;;;;;;;5.33;3.80;;;22.30;99.90;;;;;;5033678;28;20503;-81
2023/09/12 07:31:42;;;;;;;5.23;3.77;;;22.50;99.90;;;;;;5033881;28;20493;-81
2023/09/12 07:34:09;;;;;;;8.93;4.87;;;22.70;99.90;;;;;;5033755;28;20442;-81
2023/09/12 07:36:36;;;;;;;10.60;4.73;;;22.70;99.90;;;;;;5033785;28;20536;-81
2023/09/12 07:39:03;;;;;;;8.10;4.77;;;22.80;99.90;;;;;;5033626;28;20442;-81
2023/09/12 07:41:30;;;;;;;4.00;3.70;;;22.80;99.90;;;;;;5033620;28;20449;-81
2023/09/12 07:43:57;;;;;;;5.50;4.10;;;22.90;99.90;;;;;;5033583;28;20479;-81
2023/09/12 07:46:25;;;;;;;4.73;4.30;;;22.90;99.90;;;;;;5033174;28;20466;-81
2023/09/12 07:48:52;;;;;;;9.10;5.27;;;22.90;99.90;;;;;;5033572;28;20211;-81
2023/09/12 07:51:19;;;;;;;7.00;3.97;;;22.90;99.90;;;;;;5033136;28;20700;-81
2023/09/12 07:53:46;;;;;;;8.43;4.10;;;22.90;99.90;;;;;;5033348;28;20454;-81
2023/09/12 07:56:12;;;;;;;7.13;4.13;;;22.90;99.90;;;;;;5033298;28;20238;-81
2023/09/12 07:58:39;;;;;;;5.77;4.40;;;23.00;99.90;;;;;;5033388;28;20449;-80
2023/09/12 08:01:07;;;;;;;7.33;5.00;;;23.00;99.90;;;;;;5033358;28;20445;-80
2023/09/12 08:03:36;;;;;;;6.47;4.67;;;22.90;99.90;;;;;;5033328;28;20207;-81
2023/09/12 08:06:03;;;;;;;7.20;4.33;;;23.00;99.90;;;;;;5033478;28;20223;-81
2023/09/12 08:08:30;;;;;;;5.17;4.20;;;23.00;99.90;;;;;;5033289;28;20203;-81
2023/09/12 08:10:57;;;;;;;6.20;4.80;;;23.10;99.90;;;;;;5033288;28;20199;-81
2023/09/12 08:13:26;;;;;;;7.00;4.40;;;23.20;99.90;;;;;;5032935;28;20723;-81
2023/09/12 08:15:53;;;;;;;5.00;4.50;;;23.10;99.90;;;;;;5033140;28;20223;-81
2023/09/12 08:18:20;;;;;;;6.93;4.00;;;23.00;99.90;;;;;;5032909;28;20195;-81
2023/09/12 08:20:48;;;;;;;5.23;4.10;;;23.20;99.90;;;;;;5036968;28;20575;-80
2023/09/12 08:23:14;;;;;;;3.97;3.57;;;23.30;99.90;;;;;;5036863;28;20681;-81
2023/09/12 08:25:41;;;;;;;5.27;4.33;;;23.50;99.90;;;;;;5037027;28;20230;-81
2023/09/12 08:28:08;;;;;;;5.80;4.22;;;23.70;99.90;;;;;;5037180;28;20214;-81
2023/09/12 08:30:35;;;;;;;5.30;4.25;;;24.00;99.90;;;;;;5037079;28;20207;-81
2023/09/12 08:33:03;;;;;;;8.60;4.22;;;24.10;99.90;;;;;;5037041;28;20230;-81
2023/09/12 08:35:30;;;;;;;5.15;3.97;;;24.40;99.90;;;;;;5037008;28;20230;-81
2023/09/12 08:37:58;;;;;;;5.13;3.70;;;24.50;99.90;;;;;;5037058;28;20215;-81
2023/09/12 08:40:25;;;;;;;4.70;3.90;;;24.70;99.90;;;;;;5036625;28;20679;-81
2023/09/12 08:42:53;;;;;;;6.32;4.85;;;24.90;99.90;;;;;;5036935;28;20202;-81
2023/09/12 08:45:20;;;;;;;8.40;3.40;;;25.10;99.90;;;;;;5037122;28;20219;-81
2023/09/12 08:47:52;;;;;;;2.80;2.58;;;25.20;99.90;;;;;;5036851;28;20191;-81
2023/09/12 08:50:20;;;;;;;9.38;4.32;;;25.50;99.90;;;;;;5036887;28;20199;-81
2023/09/12 08:52:48;;;;;;;4.63;3.88;;;25.60;99.90;;;;;;5036664;28;20227;-81
2023/09/12 08:55:16;;;;;;;8.15;4.03;;;25.70;99.90;;;;;;5036808;28;20227;-81
2023/09/12 08:57:47;;;;;;;3.58;3.28;;;26.00;99.90;;;;;;5036404;28;20691;-81
2023/09/12 09:00:15;;;;;;;4.18;3.75;;;26.10;99.90;;;;;;5036675;28;20183;-81
2023/09/12 09:02:43;;;;;;;4.30;3.85;;;26.40;99.90;;;;;;5036572;28;20210;-81
2023/09/12 09:05:11;;;;;;;4.55;3.95;;;26.60;99.90;;;;;;5036433;28;20227;-81
2023/09/12 09:07:38;;;;;;;4.10;3.00;;;26.90;99.90;;;;;;5036183;28;20707;-81
2023/09/12 09:10:08;;;;;;;5.38;3.45;;;27.20;99.90;;;;;;5036454;28;20196;-81
2023/09/12 09:12:40;;;;;;;3.28;3.03;;;27.30;99.90;;;;;;5036562;28;20223;-81
2023/09/12 09:15:23;;;;;;;4.75;3.03;;;27.50;99.90;;;;;;5036313;28;20229;-81
2023/09/12 09:17:52;;;;;;;2.95;2.75;;;27.70;99.90;;;;;;5036288;28;20200;-81
2023/09/12 09:20:30;;;;;;;4.88;3.35;;;27.90;99.90;;;;;;5035964;28;20691;-81
2023/09/12 09:23:01;;;;;;;3.83;3.20;;;28.10;99.90;;;;;;5035901;28;20632;-81
2023/09/12 09:25:28;;;;;;;4.75;2.67;;;28.20;99.90;;;;;;5035846;28;20230;-81
2023/09/12 09:27:56;;;;;;;5.63;3.70;;;28.30;99.90;;;;;;5036742;28;20552;-81
2023/09/12 09:30:44;;;;;;;4.75;3.60;;;28.50;99.90;;;;;;5036208;28;20571;-81
2023/09/12 09:33:12;;;;;;;5.07;3.47;;;28.60;99.90;;;;;;5035998;28;20270;-81
2023/09/12 09:35:41;;;;;;;3.10;2.80;;;28.70;99.90;;;;;;5036285;28;20238;-81
2023/09/12 09:38:09;;;;;;;3.38;3.08;;;28.60;99.90;;;;;;5035660;28;20202;-81
2023/09/12 09:40:36;;;;;;;4.55;3.45;;;28.60;99.90;;;;;;5035583;28;20196;-81
2023/09/12 09:43:05;;;;;;;4.57;3.45;;;28.60;99.90;;;;;;5035662;28;20200;-82
2023/09/12 09:45:32;;;;;;;3.03;2.83;;;28.70;99.90;;;;;;5035415;28;20227;-81
2023/09/12 09:48:00;;;;;;;4.20;3.28;;;28.70;99.90;;;;;;5035702;28;20254;-82
2023/09/12 09:50:27;;;;;;;5.60;3.50;;;28.80;99.90;;;;;;5035666;28;20274;-82
2023/09/12 09:52:56;;;;;;;5.15;3.60;;;28.90;99.90;;;;;;5035880;28;20266;-82
2023/09/12 09:55:23;;;;;;;3.83;3.45;;;29.10;99.90;;;;;;5035532;28;20315;-81
2023/09/12 09:57:52;;;;;;;3.50;2.88;;;29.20;99.90;;;;;;5035517;28;20205;-81
2023/09/12 10:00:21;;;;;;;3.50;3.20;;;29.30;99.90;;;;;;5035526;28;20623;-82
2023/09/12 10:02:51;;;;;;;3.72;3.42;;;29.40;99.90;;;;;;5035491;28;20186;-81
2023/09/12 10:05:19;;;;;;;3.17;2.97;;;29.40;99.90;;;;;;5035267;28;20290;-81
2023/09/12 10:07:49;;;;;;;3.28;2.83;;;29.40;99.90;;;;;;5035342;28;20214;-81
2023/09/12 10:10:18;;;;;;;3.38;3.15;;;29.20;99.90;;;;;;5035626;28;20608;-81
2023/09/12 10:12:49;;;;;;;3.13;2.60;;;29.20;99.90;;;;;;5035214;28;20276;-81
2023/09/12 10:15:17;;;;;;;3.30;3.00;;;29.30;99.90;;;;;;5035446;28;20230;-81
2023/09/12 10:17:49;;;;;;;4.30;2.97;;;29.40;99.90;;;;;;5034857;28;20211;-82
2023/09/12 10:20:20;;;;;;;5.05;3.50;;;29.50;99.90;;;;;;5035119;28;20204;-81
2023/09/12 10:22:56;;;;;;;6.28;2.95;;;29.50;99.90;;;;;;5035246;28;20297;-81
2023/09/12 10:25:24;;;;;;;3.00;2.20;;;29.60;99.90;;;;;;5034489;28;20224;-81
2023/09/12 10:27:53;;;;;;;2.95;2.47;;;29.60;99.90;;;;;;5035335;28;20183;-81
2023/09/12 10:30:21;;;;;;;2.47;2.35;;;29.60;99.90;;;;;;5034931;28;20211;-81
2023/09/12 10:32:50;;;;;;;2.33;2.17;;;29.80;99.90;;;;;;5035012;28;20223;-81
2023/09/12 10:35:18;;;;;;;2.83;2.22;;;29.80;99.90;;;;;;5034778;28;20234;-81
2023/09/12 10:37:46;;;;;;;2.83;2.58;;;29.80;99.90;;;;;;5034799;28;20308;-81
2023/09/12 10:40:15;;;;;;;2.75;2.55;;;29.90;99.90;;;;;;5034751;28;20203;-81
2023/09/12 10:42:45;;;;;;;6.03;3.17;;;29.90;99.90;;;;;;5033696;28;20609;-81
2023/09/12 10:45:11;;;;;;;2.75;2.55;;;29.90;99.90;;;;;;5034573;28;20250;-81
2023/09/12 10:47:39;;;;;;;5.47;3.25;;;30.00;99.90;;;;;;5035427;28;20192;-81
2023/09/12 10:50:08;;;;;;;2.70;2.55;;;30.00;99.90;;;;;;5034111;28;20612;-81
2023/09/12 10:52:39;;;;;;;2.80;2.60;;;30.10;99.90;;;;;;5035033;28;20223;-81
2023/09/12 10:55:07;;;;;;;2.53;2.33;;;30.30;99.90;;;;;;5034433;28;20227;-81
2023/09/12 10:57:34;;;;;;;4.47;4.15;;;30.40;99.90;;;;;;5034427;28;20214;-81
2023/09/12 11:00:12;;;;;;;3.83;2.67;;;30.50;99.90;;;;;;5034234;28;20570;-81
2023/09/12 11:02:41;;;;;;;3.80;3.40;;;30.50;99.90;;;;;;5034264;28;20210;-81
2023/09/12 11:05:52;;;;;;;3.60;3.30;;;30.40;99.90;;;;;;5033860;28;20235;-81
2023/09/12 11:08:19;;;;;;;3.40;3.10;;;30.30;99.90;;;;;;5034206;28;20264;-81
2023/09/12 11:11:06;;;;;;;4.55;2.47;;;30.30;99.90;;;;;;5034158;28;20213;-82
2023/09/12 11:13:40;;;;;;;3.15;2.85;;;30.20;99.90;;;;;;5033660;28;20219;-81
2023/09/12 11:16:17;;;;;;;3.20;2.90;;;30.20;99.40;;;;;;5033714;28;20227;-81
2023/09/12 11:19:19;;;;;;;7.43;3.33;;;30.20;99.40;;;;;;5033928;28;20216;-81
2023/09/12 11:21:48;;;;;;;4.47;2.67;;;30.10;99.90;;;;;;5034204;28;20285;-81
2023/09/12 11:24:16;;;;;;;2.85;2.53;;;30.10;99.90;;;;;;5033915;28;20205;-81
2023/09/12 11:26:57;;;;;;;2.15;2.05;;;30.10;99.90;;;;;;5033374;28;20243;-81
2023/09/12 11:29:28;;;;;;;2.80;2.60;;;30.10;97.30;;;;;;5033540;28;20583;-81
2023/09/12 11:31:58;;;;;;;2.53;2.33;;;30.10;97.50;;;;;;5033782;28;20187;-81
2023/09/12 11:34:27;;;;;;;3.50;3.20;;;30.10;97.60;;;;;;5033405;28;20211;-81
2023/09/12 11:36:59;;;;;;;3.25;2.95;;;30.10;94.80;;;;;;5033448;28;20242;-81
2023/09/12 11:39:29;;;;;;;2.75;2.55;;;30.10;94.10;;;;;;5033747;28;20192;-81
2023/09/12 11:41:57;;;;;;;2.85;2.65;;;30.00;94.90;;;;;;5033392;28;20647;-81
2023/09/12 11:44:26;;;;;;;2.92;2.70;;;29.90;94.50;;;;;;5033592;28;20214;-81
2023/09/12 11:46:53;;;;;;;2.88;2.70;;;29.90;94.90;;;;;;5033620;28;20188;-81
2023/09/12 11:49:20;;;;;;;2.50;2.30;;;29.90;94.30;;;;;;5033514;28;20212;-81
2023/09/12 11:51:51;;;;;;;3.80;3.40;;;29.80;94.20;;;;;;5033221;28;20204;-81
2023/09/12 11:54:26;;;;;;;3.90;2.75;;;29.80;94.50;;;;;;5033436;28;20212;-81
2023/09/12 11:56:56;;;;;;;3.20;2.90;;;29.70;94.40;;;;;;5033497;28;20237;-81
2023/09/12 11:59:24;;;;;;;3.55;2.55;;;29.70;94.40;;;;;;5033658;28;20198;-81
2023/09/12 12:01:51;;;;;;;3.38;3.08;;;29.70;93.80;;;;;;5033373;28;20203;-81
2023/09/12 12:04:18;;;;;;;3.33;2.85;;;29.70;93.70;;;;;;5034045;28;20257;-82
2023/09/12 12:06:45;;;;;;;3.13;2.80;;;29.80;93.90;;;;;;5033284;28;20231;-82
2023/09/12 12:09:13;;;;;;;8.15;2.83;;;29.90;92.90;;;;;;5033272;28;20202;-82
2023/09/12 12:11:42;;;;;;;3.25;2.40;;;30.00;92.20;;;;;;5033335;28;20567;-81
2023/09/12 12:14:14;;;;;;;2.78;2.58;;;30.00;92.40;;;;;;5032823;28;20231;-81
2023/09/12 12:16:41;;;;;;;3.53;2.90;;;29.90;94.40;;;;;;5033475;28;20222;-81
2023/09/12 12:19:08;;;;;;;3.17;2.88;;;29.80;94.20;;;;;;5033442;28;20209;-81
2023/09/12 12:21:35;;;;;;;5.18;3.20;;;29.60;94.80;;;;;;5032985;28;20194;-81
2023/09/12 12:24:04;;;;;;;4.03;2.85;;;29.60;95.80;;;;;;5032866;28;20206;-82
2023/09/12 12:26:31;;;;;;;3.65;2.60;;;29.50;95.90;;;;;;5032760;28;20233;-82
2023/09/12 12:29:00;;;;;;;3.30;3.05;;;29.40;96.10;;;;;;5032891;28;20205;-81
2023/09/12 12:31:27;;;;;;;4.50;3.63;;;29.40;94.30;;;;;;5033232;28;20219;-81
2023/09/12 12:33:55;;;;;;;3.55;3.25;;;29.30;95.80;;;;;;5032769;28;20226;-81
2023/09/12 12:36:22;;;;;;;3.05;2.75;;;29.20;95.70;;;;;;5032959;28;20226;-81
2023/09/12 12:38:50;;;;;;;3.47;3.15;;;29.20;95.90;;;;;;5033035;28;20208;-80
2023/09/12 12:41:22;;;;;;;3.50;2.60;;;29.10;95.30;;;;;;5032850;28;20283;-81
2023/09/12 12:43:51;;;;;;;3.50;2.50;;;29.10;96.30;;;;;;5033043;28;20190;-81
2023/09/12 12:46:21;;;;;;;3.35;3.13;;;29.00;96.00;;;;;;5032893;28;20234;-80
2023/09/12 12:48:48;;;;;;;2.95;2.67;;;29.00;95.00;;;;;;5032941;28;20215;-81
2023/09/12 12:51:17;;;;;;;2.80;2.58;;;28.90;95.60;;;;;;5032962;28;20196;-81